Time;durP1;ratioP1;P1;durP2;ratioP2;P2;SDS_P1;SDS_P2;PMS_P1;PMS_P2;Temp;Humidity;BMP_temperature;BMP_pressure;BME280_temperature;BME280_humidity;BME280_pressure;Samples;Min_cycle;Max_cycle;Signal;HPM_P1;HPM_P2
2021/06/17 00:05:31;;;;;;;87.32;42.00;;;;;;;18.20;73.02;92881.63;5013288;28;20156;-91
2021/06/17 00:08:41;;;;;;;;;;;;;;;;;;;;;
2021/06/17 00:11:56;;;;;;;83.32;41.53;;;;;;;18.07;73.18;92878.13;4958994;28;20065;-91
2021/06/17 00:14:52;;;;;;;91.88;41.03;;;;;;;17.94;73.07;92857.19;4959091;28;20061;-95
2021/06/17 00:17:53;;;;;;;;;;;;;;;;;;;;;
2021/06/17 00:22:02;;;;;;;;;;;;;;;;;;;;;
2021/06/17 00:24:36;;;;;;;;;;;;;;;;;;;;;
2021/06/17 00:27:28;;;;;;;;;;;;;;;;;;;;;
2021/06/17 00:30:39;;;;;;;87.30;40.70;;;;;;;18.06;72.97;92850.09;5020098;28;20092;-94
2021/06/17 00:33:46;;;;;;;;;;;;;;;;;;;;;
2021/06/17 00:40:54;;;;;;;81.40;39.97;;;;;;;18.19;73.28;92868.69;4951139;28;20055;-93
2021/06/17 00:54:05;;;;;;;;;;;;;;;;;;;;;
2021/06/17 01:00:58;;;;;;;88.97;41.58;;;;;;;17.98;73.71;92852.81;4962681;28;20059;-94
2021/06/17 01:10:42;;;;;;;;;;;;;;;;;;;;;
2021/06/17 01:17:18;;;;;;;;;;;;;;;;;;;;;
2021/06/17 01:24:29;;;;;;;86.88;42.58;;;;;;;18.17;73.49;92876.97;4943178;29;20048;-93
2021/06/17 01:27:40;;;;;;;89.43;41.40;;;;;;;18.10;73.38;92872.19;4952824;28;20046;-94
2021/06/17 01:30:55;;;;;;;93.22;43.22;;;;;;;18.07;73.78;92872.06;4991736;28;20046;-95
2021/06/17 01:34:06;;;;;;;;;;;;;;;;;;;;;
2021/06/17 01:37:38;;;;;;;;;;;;;;;;;;;;;
2021/06/17 01:40:52;;;;;;;85.30;42.08;;;;;;;17.85;73.45;92833.41;4972513;28;20042;-94
2021/06/17 01:43:48;;;;;;;95.38;43.03;;;;;;;17.96;73.45;92844.41;5012702;28;20043;-94
2021/06/17 01:54:04;;;;;;;87.80;41.13;;;;;;;18.00;73.11;92838.13;4972900;28;20287;-94
2021/06/17 02:00:30;;;;;;;93.70;43.78;;;;;;;18.08;72.79;92841.81;5013477;28;20057;-94
2021/06/17 02:03:43;;;;;;;;;;;;;;;;;;;;;
2021/06/17 02:07:31;;;;;;;88.10;40.75;;;;;;;18.23;72.72;92864.31;5023674;28;20072;-94
2021/06/17 02:13:46;;;;;;;86.18;40.40;;;;;;;18.18;72.65;92854.69;4977203;28;20059;-92
2021/06/17 02:17:30;;;;;;;;;;;;;;;;;;;;;
2021/06/17 02:19:42;;;;;;;;;;;;;;;;;;;;;
2021/06/17 02:23:23;;;;;;;86.70;40.67;;;;;;;18.41;73.47;92880.84;4989600;28;20038;-93
2021/06/17 02:26:39;;;;;;;;;;;;;;;;;;;;;
2021/06/17 02:33:09;;;;;;;87.47;42.40;;;;;;;18.37;72.02;92869.31;5078229;28;20054;-94
2021/06/17 02:36:25;;;;;;;;;;;;;;;;;;;;;
2021/06/17 02:39:33;;;;;;;88.82;41.95;;;;;;;18.44;71.67;92864.28;4976684;28;20103;-93
2021/06/17 02:42:34;;;;;;;;;;;;;;;;;;;;;
2021/06/17 02:45:22;;;;;;;;;;;;;;;;;;;;;
2021/06/17 02:48:59;;;;;;;;;;;;;;;;;;;;;
2021/06/17 02:52:30;;;;;;;;;;;;;;;;;;;;;
2021/06/17 02:55:42;;;;;;;;;;;;;;;;;;;;;
2021/06/17 02:59:08;;;;;;;81.93;39.45;;;;;;;18.79;72.77;92917.03;5057554;28;20063;-94
2021/06/17 03:02:08;;;;;;;78.32;38.10;;;;;;;18.52;72.70;92888.06;5052680;28;20085;-93
2021/06/17 03:05:24;;;;;;;84.97;43.17;;;;;;;18.42;72.82;92869.91;5060310;28;20037;-92
2021/06/17 03:08:45;;;;;;;;;;;;;;;;;;;;;
2021/06/17 03:11:41;;;;;;;101.40;44.50;;;;;;;18.74;72.58;92910.03;5060291;28;20417;-93
2021/06/17 03:18:26;;;;;;;;;;;;;;;;;;;;;
2021/06/17 03:21:40;;;;;;;;;;;;;;;;;;;;;
2021/06/17 03:24:23;;;;;;;91.47;42.47;;;;;;;18.61;72.24;92871.31;5055469;28;20052;-93
2021/06/17 03:27:16;;;;;;;97.93;46.33;;;;;;;18.59;71.98;92862.91;5074994;28;20036;-94
2021/06/17 03:30:22;;;;;;;89.15;42.78;;;;;;;18.61;72.17;92860.69;5055108;28;20051;-92
2021/06/17 03:37:26;;;;;;;;;;;;;;;;;;;;;
2021/06/17 03:43:56;;;;;;;80.93;39.90;;;;;;;18.96;72.38;92911.56;5050924;28;20128;-93
2021/06/17 03:47:05;;;;;;;92.25;42.25;;;;;;;18.64;72.07;92866.13;5063470;28;20049;-93
2021/06/17 03:49:50;;;;;;;89.47;40.75;;;;;;;18.75;72.28;92877.09;5074354;28;20045;-92
2021/06/17 03:52:57;;;;;;;;;;;;;;;;;;;;;
2021/06/17 03:56:01;;;;;;;93.05;38.85;;;;;;;18.75;72.57;92871.00;5070123;28;20083;-93
2021/06/17 03:59:16;;;;;;;81.07;39.00;;;;;;;18.73;72.62;92879.28;5036754;28;20072;-91
2021/06/17 04:02:00;;;;;;;88.03;39.70;;;;;;;18.88;72.57;92905.22;5058391;28;20041;-92
2021/06/17 04:04:48;;;;;;;;;;;;;;;;;;;;;
2021/06/17 04:15:04;;;;;;;77.00;38.15;;;;;;;18.88;72.47;92915.84;4982272;28;20058;-93
2021/06/17 04:25:05;;;;;;;;;;;;;;;18.98;72.71;92940.41;5000359;28;20051;-93
2021/06/17 04:28:40;;;;;;;;;;;;;;;;;;;;;
2021/06/17 04:32:09;;;;;;;84.50;36.40;;;;;;;18.67;72.47;92893.88;5018108;28;20051;-93
2021/06/17 04:34:58;;;;;;;;;;;;;;;;;;;;;
2021/06/17 04:37:59;;;;;;;76.28;35.92;;;;;;;18.82;72.85;92922.44;4954071;28;20047;-94
2021/06/17 04:40:59;;;;;;;68.93;36.08;;;;;;;18.75;72.69;92922.16;4996821;28;20050;-92
2021/06/17 04:43:47;;;;;;;73.28;35.38;;;;;;;18.84;72.78;92935.38;4990314;28;20038;-91
2021/06/17 04:54:56;;;;;;;76.88;39.45;;;;;;;19.12;72.52;92975.41;5014293;28;20562;-92
2021/06/17 05:19:32;;;;;;;;;;;;;;;;;;;;;
2021/06/17 05:30:35;;;;;;;86.40;39.10;;;;;;;19.72;69.31;92978.50;4905514;28;20402;-93
2021/06/17 05:51:31;;;;;;;;;;;;;;;;;;;;;
2021/06/17 05:55:34;;;;;;;;;;;;;;;;;;;;;
2021/06/17 05:58:30;;;;;;;82.78;38.72;;;;;;;19.60;69.31;92952.69;5006642;28;20116;-95
2021/06/17 06:02:23;;;;;;;;;;;;;;;;;;;;;
2021/06/17 06:09:42;;;;;;;75.90;38.42;;;;;;;19.53;69.32;92944.50;5001094;28;20118;-94
2021/06/17 06:13:37;;;;;;;;;;;;;;;;;;;;;
2021/06/17 06:20:37;;;;;;;;;;;;;;;;;;;;;
2021/06/17 06:24:19;;;;;;;;;;;;;;;;;;;;;
2021/06/17 07:11:11;;;;;;;;;;;;;;;;;;;;;
2021/06/17 07:15:04;;;;;;;;;;;;;;;;;;;;;
2021/06/17 07:26:35;;;;;;;79.45;39.70;;;;;;;22.81;58.45;92953.50;4908567;29;20080;-94
2021/06/17 07:35:28;;;;;;;;;;;;;;;;;;;;;
2021/06/17 07:48:53;;;;;;;70.35;36.53;;;;;;;22.93;63.51;92999.88;4899638;22;20081;-78
2021/06/17 07:51:19;;;;;;;74.63;40.15;;;;;;;22.89;61.80;93005.13;5020340;28;20060;-77
2021/06/17 07:53:44;;;;;;;77.85;38.35;;;;;;;22.60;63.03;92999.19;5015390;28;20050;-77
2021/06/17 07:56:10;;;;;;;82.45;42.55;;;;;;;22.72;62.71;93013.53;4991913;28;20061;-78
2021/06/17 07:58:36;;;;;;;77.63;37.92;;;;;;;22.23;63.16;93010.19;4974098;28;20050;-77
2021/06/17 08:01:04;;;;;;;79.38;40.55;;;;;;;22.19;64.04;93009.31;4960692;28;20150;-77
2021/06/17 08:03:31;;;;;;;74.28;39.55;;;;;;;21.71;65.75;93013.88;4994430;28;20053;-78
2021/06/17 08:05:56;;;;;;;94.22;42.55;;;;;;;21.72;65.97;93015.41;4972269;28;20039;-78
2021/06/17 08:08:23;;;;;;;75.15;38.22;;;;;;;21.76;66.64;93015.50;4958311;28;20134;-77
2021/06/17 08:10:48;;;;;;;68.57;37.78;;;;;;;21.39;68.01;93013.81;4966953;28;20419;-78
2021/06/17 08:13:14;;;;;;;69.70;37.35;;;;;;;21.64;68.16;93024.34;5026600;28;20048;-77
2021/06/17 08:15:40;;;;;;;74.22;38.70;;;;;;;21.77;67.41;93017.03;5041365;28;20365;-77
2021/06/17 08:18:06;;;;;;;69.95;37.30;;;;;;;21.82;67.27;93024.81;5055077;28;20082;-77
2021/06/17 08:20:32;;;;;;;71.55;37.90;;;;;;;22.07;66.79;93020.06;5012325;28;20450;-78
2021/06/17 08:22:57;;;;;;;68.60;38.08;;;;;;;22.31;65.54;93013.03;4981613;28;20027;-77
2021/06/17 08:25:23;;;;;;;70.20;37.88;;;;;;;22.45;65.18;93019.47;4991176;28;20050;-77
2021/06/17 08:27:49;;;;;;;68.53;39.03;;;;;;;22.35;64.70;93016.53;4990357;28;20111;-77
2021/06/17 08:30:17;;;;;;;73.05;40.63;;;;;;;22.14;65.27;93011.47;4989170;28;20042;-77
2021/06/17 08:32:43;;;;;;;72.60;40.30;;;;;;;22.06;66.33;93015.09;4956057;28;20049;-77
2021/06/17 08:35:11;;;;;;;77.25;40.92;;;;;;;22.08;66.35;93008.28;4987984;28;20038;-78
2021/06/17 08:37:36;;;;;;;74.90;40.88;;;;;;;22.15;65.57;93000.44;4991411;28;20072;-78
2021/06/17 08:40:04;;;;;;;91.15;43.33;;;;;;;22.21;65.38;93003.63;4966832;28;20050;-77
2021/06/17 08:42:31;;;;;;;79.38;41.95;;;;;;;22.39;65.38;93002.16;4971895;28;20088;-77
2021/06/17 08:44:58;;;;;;;78.50;41.42;;;;;;;22.62;64.71;92991.59;4978417;28;20074;-77
2021/06/17 08:47:24;;;;;;;71.00;39.45;;;;;;;22.82;63.98;92994.31;4989130;28;20129;-77
2021/06/17 08:49:52;;;;;;;87.65;41.33;;;;;;;23.06;63.45;92988.72;4971653;28;20565;-78
2021/06/17 08:52:21;;;;;;;77.57;42.35;;;;;;;23.34;60.56;92987.72;4951934;28;20073;-78
2021/06/17 08:54:48;;;;;;;86.88;39.95;;;;;;;23.27;61.65;92982.25;4966351;28;20084;-77
2021/06/17 08:57:14;;;;;;;71.90;37.67;;;;;;;22.99;62.77;92972.59;4969821;28;20051;-77
2021/06/17 08:59:41;;;;;;;69.00;37.85;;;;;;;23.05;62.17;92978.41;4970755;28;20121;-77
2021/06/17 09:02:08;;;;;;;79.88;39.53;;;;;;;22.83;61.24;92974.50;4961996;28;20468;-77
2021/06/17 09:04:35;;;;;;;72.20;37.72;;;;;;;22.69;62.54;92979.56;4965177;28;20183;-77
2021/06/17 09:07:09;;;;;;;74.63;39.08;;;;;;;23.07;62.67;92971.56;4951844;28;20054;-77
2021/06/17 09:09:48;;;;;;;63.42;34.70;;;;;;;23.17;62.15;92972.13;4953777;28;20469;-77
2021/06/17 09:12:19;;;;;;;77.47;39.53;;;;;;;23.32;61.02;92967.84;4967930;28;20111;-77
2021/06/17 09:14:53;;;;;;;74.65;41.80;;;;;;;22.97;61.18;92974.78;4951218;29;20054;-77
2021/06/17 09:17:19;;;;;;;83.10;40.80;;;;;;;22.90;61.35;92957.84;4948207;28;20047;-76
2021/06/17 09:19:48;;;;;;;68.20;40.10;;;;;;;23.35;60.82;92970.59;4956145;28;20125;-77
2021/06/17 09:22:16;;;;;;;68.03;37.78;;;;;;;23.46;61.07;92970.75;4934663;28;20046;-77
2021/06/17 09:24:44;;;;;;;75.85;39.55;;;;;;;23.91;59.25;92969.25;4977459;28;20051;-77
2021/06/17 09:27:20;;;;;;;76.45;42.78;;;;;;;24.62;56.82;92966.88;4971403;28;20047;-77
2021/06/17 09:29:46;;;;;;;80.15;44.00;;;;;;;23.94;58.75;92973.13;4954242;28;20043;-77
2021/06/17 09:32:24;;;;;;;78.20;40.05;;;;;;;24.41;55.06;92972.69;4946975;28;20039;-77
2021/06/17 09:34:50;;;;;;;81.07;40.97;;;;;;;24.82;55.59;92982.81;4956008;28;20225;-77
2021/06/17 09:37:35;;;;;;;74.00;39.90;;;;;;;24.46;56.16;92974.28;4965911;28;20049;-77
2021/06/17 09:40:21;;;;;;;68.28;37.47;;;;;;;24.67;55.19;92979.94;4956038;28;20040;-77
2021/06/17 09:42:47;;;;;;;74.60;39.28;;;;;;;24.14;57.30;92984.50;4952674;29;20130;-80
2021/06/17 09:45:22;;;;;;;73.93;38.97;;;;;;;23.76;57.56;92986.19;4998299;28;20049;-78
2021/06/17 09:47:48;;;;;;;77.57;39.30;;;;;;;23.78;56.27;92982.03;4983877;28;20089;-78
2021/06/17 09:50:27;;;;;;;77.28;39.13;;;;;;;23.49;60.30;92989.53;4984629;28;20538;-77
2021/06/17 09:52:55;;;;;;;74.47;41.25;;;;;;;23.20;60.06;92985.56;4991756;28;20048;-77
2021/06/17 09:55:42;;;;;;;60.97;35.85;;;;;;;23.73;57.58;92986.88;5012118;28;20305;-77
2021/06/17 09:58:32;;;;;;;64.18;36.72;;;;;;;23.61;58.33;92987.81;4962068;28;20059;-78
2021/06/17 10:00:58;;;;;;;62.60;33.33;;;;;;;24.22;58.54;92978.13;4953463;28;20048;-77
2021/06/17 10:03:23;;;;;;;60.45;32.05;;;;;;;24.48;57.10;92982.75;4959706;28;20527;-78
2021/06/17 10:05:49;;;;;;;65.80;35.15;;;;;;;24.40;56.78;92981.06;4991490;28;20073;-78
2021/06/17 10:08:15;;;;;;;71.07;34.72;;;;;;;24.53;56.02;92982.44;4991119;28;20366;-78
2021/06/17 10:10:41;;;;;;;69.32;36.92;;;;;;;24.46;56.85;92982.31;4985703;28;20031;-78
2021/06/17 10:13:08;;;;;;;65.03;34.83;;;;;;;24.34;57.07;92972.59;5053867;28;20029;-78
2021/06/17 10:15:35;;;;;;;60.92;34.72;;;;;;;24.21;56.38;92974.69;4982692;28;20059;-78
2021/06/17 10:18:01;;;;;;;62.78;33.63;;;;;;;24.40;56.84;92981.06;4960585;28;20122;-77
2021/06/17 10:20:27;;;;;;;67.32;35.40;;;;;;;24.87;53.89;92985.16;4971664;28;20065;-78
2021/06/17 10:22:57;;;;;;;59.67;34.03;;;;;;;25.16;53.56;92982.84;4991605;28;20120;-77
2021/06/17 10:25:26;;;;;;;65.38;34.78;;;;;;;24.90;54.71;92987.09;5005841;28;20136;-77
2021/06/17 10:27:57;;;;;;;64.65;36.20;;;;;;;25.17;55.42;92982.44;5072196;28;20048;-78
2021/06/17 10:30:44;;;;;;;59.30;34.05;;;;;;;25.69;53.39;92983.41;5009146;28;20046;-78
2021/06/17 10:33:32;;;;;;;65.07;32.75;;;;;;;25.73;53.35;92981.53;4973056;28;20049;-78
2021/06/17 10:36:16;;;;;;;56.22;33.28;;;;;;;25.50;53.07;92976.34;4972978;28;20604;-78
2021/06/17 10:39:15;;;;;;;54.08;31.88;;;;;;;25.39;52.71;92970.09;4993506;28;20487;-78
2021/06/17 10:41:46;;;;;;;63.88;34.38;;;;;;;25.72;52.81;92968.50;4949896;28;20134;-78
2021/06/17 10:44:52;;;;;;;52.35;30.90;;;;;;;25.79;53.21;92971.25;4978063;28;20046;-78
2021/06/17 10:50:10;;;;;;;57.70;32.58;;;;;;;25.64;54.00;92974.94;4957898;28;20491;-77
2021/06/17 10:52:38;;;;;;;61.92;33.15;;;;;;;25.22;54.62;92966.09;4976117;28;20066;-78
2021/06/17 10:55:07;;;;;;;52.85;30.48;;;;;;;24.96;55.58;92964.22;4971950;28;20047;-76
2021/06/17 10:57:49;;;;;;;59.38;32.47;;;;;;;25.02;56.32;92957.44;4972394;28;20122;-77
2021/06/17 11:02:54;;;;;;;54.22;28.77;;;;;;;24.40;57.00;92952.41;4975154;28;20031;-77
2021/06/17 11:05:29;;;;;;;47.15;29.25;;;;;;;25.00;55.78;92953.56;4975301;28;20137;-78
2021/06/17 11:08:22;;;;;;;51.35;30.05;;;;;;;25.27;54.28;92949.69;4975043;28;20053;-77
2021/06/17 11:11:08;;;;;;;50.08;27.77;;;;;;;25.12;54.81;92956.75;4992575;28;20055;-77
2021/06/17 11:13:51;;;;;;;56.28;31.60;;;;;;;25.40;54.38;92944.84;4975355;28;20129;-78
2021/06/17 11:16:16;;;;;;;48.20;28.17;;;;;;;25.46;55.67;92950.63;4992727;28;20129;-78
2021/06/17 11:19:02;;;;;;;49.50;27.33;;;;;;;25.35;55.87;92947.84;4992621;28;20502;-77
2021/06/17 11:21:38;;;;;;;56.28;31.55;;;;;;;25.30;53.52;92942.81;4992664;28;20137;-78
2021/06/17 11:24:09;;;;;;;44.15;26.05;;;;;;;25.13;54.78;92947.59;4975154;28;20085;-77
2021/06/17 11:26:46;;;;;;;47.35;29.17;;;;;;;25.61;54.44;92944.28;4975160;28;20043;-77
2021/06/17 11:29:20;;;;;;;55.55;28.90;;;;;;;25.61;53.54;92951.56;4974794;28;20088;-76
2021/06/17 11:31:54;;;;;;;61.70;30.98;;;;;;;25.02;52.92;92941.38;4975036;28;20051;-77
2021/06/17 11:34:29;;;;;;;52.83;31.80;;;;;;;25.07;54.41;92949.06;4974993;28;20503;-78
2021/06/17 11:36:57;;;;;;;56.22;32.08;;;;;;;24.99;54.26;92946.66;4959280;28;20046;-78
2021/06/17 11:39:25;;;;;;;50.38;29.83;;;;;;;25.01;54.16;92950.50;4992449;28;20537;-78
2021/06/17 11:41:54;;;;;;;50.50;29.73;;;;;;;25.17;53.68;92942.28;4958578;28;20050;-78
2021/06/17 11:44:24;;;;;;;49.70;29.08;;;;;;;25.36;54.45;92941.38;4974766;28;20511;-78
2021/06/17 11:46:51;;;;;;;49.50;31.02;;;;;;;25.18;53.60;92940.38;4974765;28;20415;-77
2021/06/17 11:49:18;;;;;;;57.53;32.47;;;;;;;25.39;53.72;92948.66;4986682;28;20048;-77
2021/06/17 11:51:52;;;;;;;46.38;30.08;;;;;;;25.83;53.05;92944.47;5052253;28;20115;-75
2021/06/17 11:54:26;;;;;;;48.95;28.67;;;;;;;26.22;53.04;92949.38;5052518;28;20059;-77
2021/06/17 11:57:02;;;;;;;53.15;29.20;;;;;;;26.13;52.43;92947.03;5019323;28;20044;-77
2021/06/17 11:59:31;;;;;;;47.28;28.13;;;;;;;26.27;51.30;92941.75;5034833;28;20502;-76
2021/06/17 12:02:02;;;;;;;47.47;30.15;;;;;;;25.88;51.22;92941.47;5050937;28;20079;-77
2021/06/17 12:05:04;;;;;;;54.10;28.70;;;;;;;25.58;54.32;92944.22;5034794;28;20056;-77
2021/06/17 12:07:34;;;;;;;51.45;31.83;;;;;;;26.23;51.45;92935.59;5009005;28;20099;-77
2021/06/17 12:10:14;;;;;;;55.08;27.30;;;;;;;26.42;51.96;92931.88;5052385;28;20033;-77
2021/06/17 12:12:50;;;;;;;48.95;30.30;;;;;;;26.24;52.71;92931.00;5052676;28;20037;-76
2021/06/17 12:15:24;;;;;;;45.30;28.77;;;;;;;26.42;51.66;92926.50;5052523;28;20562;-76
2021/06/17 12:17:54;;;;;;;52.60;29.40;;;;;;;26.95;50.03;92927.91;5035073;28;20483;-77
2021/06/17 12:20:26;;;;;;;49.10;28.50;;;;;;;27.18;48.47;92923.03;5035008;28;20033;-77
2021/06/17 12:23:01;;;;;;;;;;;;;;;26.73;49.91;92924.41;5003011;28;20124;-77
2021/06/17 12:25:33;;;;;;;43.75;26.33;;;;;;;27.11;51.32;92917.63;5014988;28;20437;-77
2021/06/17 12:28:01;;;;;;;44.63;26.02;;;;;;;26.84;51.89;92911.00;5032336;28;20041;-76
2021/06/17 12:30:33;;;;;;;40.97;26.17;;;;;;;26.81;52.51;92912.53;5051630;28;20490;-77
2021/06/17 12:33:06;;;;;;;46.17;28.58;;;;;;;27.11;50.09;92914.16;5034911;28;20154;-77
2021/06/17 12:35:49;;;;;;;45.70;27.02;;;;;;;27.31;48.84;92920.00;5052617;28;20449;-77
2021/06/17 12:38:33;;;;;;;43.55;25.63;;;;;;;27.17;51.03;92909.97;5052644;28;20123;-77
2021/06/17 12:41:15;;;;;;;48.47;28.60;;;;;;;27.15;50.42;92904.94;5033099;28;20156;-77
2021/06/17 12:43:46;;;;;;;45.35;27.42;;;;;;;26.35;52.14;92905.75;5034229;28;20087;-77
2021/06/17 12:46:13;;;;;;;45.72;26.63;;;;;;;26.80;48.54;92919.06;5034617;28;20041;-76
2021/06/17 12:54:21;;;;;;;49.67;26.35;;;;;;;27.65;49.21;92919.66;5067671;28;20064;-77
2021/06/17 12:57:01;;;;;;;45.95;27.92;;;;;;;25.68;52.62;92904.13;5064596;28;20044;-77
2021/06/17 12:59:49;;;;;;;51.22;29.92;;;;;;;25.77;53.47;92907.25;5071230;28;20064;-77
2021/06/17 13:02:20;;;;;;;44.03;26.52;;;;;;;25.90;52.97;92912.38;5071617;28;20048;-77
2021/06/17 13:05:04;;;;;;;47.65;27.55;;;;;;;26.79;52.59;92896.03;5071608;28;20513;-77
2021/06/17 13:07:31;;;;;;;51.30;30.92;;;;;;;26.87;49.66;92897.59;5071959;28;20036;-77
2021/06/17 13:10:15;;;;;;;46.50;29.13;;;;;;;26.78;49.97;92900.63;5072072;28;20405;-77
2021/06/17 13:12:41;;;;;;;44.85;27.85;;;;;;;26.71;51.39;92895.22;5071724;28;20079;-77
2021/06/17 13:15:11;;;;;;;40.97;27.38;;;;;;;26.82;50.85;92889.91;5050597;28;20060;-77
2021/06/17 13:17:38;;;;;;;44.70;28.50;;;;;;;26.52;51.50;92895.50;5071894;28;20410;-77
2021/06/17 13:20:06;;;;;;;45.55;26.25;;;;;;;26.46;53.27;92894.34;5066963;28;20044;-77
2021/06/17 13:22:56;;;;;;;46.65;28.40;;;;;;;26.89;51.39;92899.91;5071257;28;20039;-77
2021/06/17 13:25:23;;;;;;;44.75;27.73;;;;;;;26.76;51.24;92899.47;5068772;28;20109;-77
2021/06/17 13:27:49;;;;;;;40.38;26.13;;;;;;;27.25;50.82;92890.06;5071708;28;20094;-77
2021/06/17 13:30:23;;;;;;;46.85;26.27;;;;;;;27.16;51.54;92879.63;5071467;28;20040;-76
2021/06/17 13:32:49;;;;;;;45.28;27.27;;;;;;;26.37;53.09;92886.63;5064167;28;20039;-77
2021/06/17 13:35:15;;;;;;;42.13;26.15;;;;;;;26.78;52.25;92875.69;5070124;28;20413;-77
2021/06/17 13:37:40;;;;;;;43.95;28.63;;;;;;;26.23;53.06;92878.47;5071225;28;20071;-77
2021/06/17 13:40:06;;;;;;;46.30;29.38;;;;;;;26.46;51.75;92868.25;5064377;28;20475;-76
2021/06/17 13:42:32;;;;;;;48.38;27.45;;;;;;;26.67;52.05;92875.66;5059353;28;20519;-76
2021/06/17 13:45:00;;;;;;;42.92;27.65;;;;;;;26.50;51.23;92879.00;5064299;28;20049;-76
2021/06/17 13:47:26;;;;;;;45.05;28.38;;;;;;;26.61;52.35;92871.78;5062258;28;20114;-76
2021/06/17 13:49:51;;;;;;;53.08;28.60;;;;;;;26.37;52.23;92871.28;5002617;28;20046;-76
2021/06/17 13:52:17;;;;;;;41.83;25.75;;;;;;;26.43;52.70;92871.66;4960804;28;20351;-76
2021/06/17 13:54:43;;;;;;;51.00;27.77;;;;;;;26.08;53.82;92859.63;4936195;28;20049;-77
2021/06/17 13:57:11;;;;;;;49.08;26.67;;;;;;;26.42;52.67;92866.69;5018745;28;20424;-77
2021/06/17 13:59:40;;;;;;;41.75;26.63;;;;;;;25.93;51.25;92869.47;4987230;28;20500;-76
2021/06/17 14:02:09;;;;;;;39.58;25.88;;;;;;;26.01;52.65;92848.84;4969824;28;20440;-76
2021/06/17 14:04:36;;;;;;;47.72;27.90;;;;;;;25.66;53.90;92866.19;5008394;28;20053;-76
2021/06/17 14:07:01;;;;;;;35.85;23.63;;;;;;;26.40;52.18;92864.38;4957722;28;20045;-77
2021/06/17 14:09:27;;;;;;;44.15;25.10;;;;;;;26.09;50.06;92855.78;4955067;28;20050;-77
2021/06/17 14:11:53;;;;;;;42.92;24.60;;;;;;;26.77;48.42;92850.78;4989529;28;20396;-78
2021/06/17 14:14:18;;;;;;;45.50;24.27;;;;;;;26.81;50.97;92844.63;4991191;28;20060;-76
2021/06/17 14:16:44;;;;;;;42.03;27.13;;;;;;;26.54;50.25;92853.69;4991467;28;20042;-76
2021/06/17 14:19:10;;;;;;;39.00;26.35;;;;;;;26.26;51.28;92859.72;4990903;28;20042;-76
2021/06/17 14:21:36;;;;;;;42.78;25.10;;;;;;;26.58;51.44;92851.84;4991377;28;20119;-76
2021/06/17 14:24:02;;;;;;;40.05;26.52;;;;;;;26.79;50.68;92851.16;4974336;28;20498;-77
2021/06/17 14:26:27;;;;;;;48.17;28.05;;;;;;;26.69;50.57;92851.88;4973944;28;20062;-77
2021/06/17 14:28:53;;;;;;;43.47;28.83;;;;;;;26.06;51.65;92850.41;4991529;28;20133;-76
2021/06/17 14:31:19;;;;;;;44.58;27.15;;;;;;;26.26;52.25;92854.34;5058237;28;20416;-76
2021/06/17 14:33:45;;;;;;;42.63;24.75;;;;;;;26.31;52.81;92845.94;5024726;28;20034;-75
2021/06/17 14:36:11;;;;;;;42.47;25.38;;;;;;;25.96;53.41;92857.22;4973547;28;20086;-76
2021/06/17 14:38:37;;;;;;;41.92;27.05;;;;;;;26.32;50.88;92844.03;4958137;28;20128;-77
2021/06/17 14:41:04;;;;;;;39.65;27.02;;;;;;;26.07;51.21;92849.25;4957774;28;20141;-77
2021/06/17 14:43:30;;;;;;;43.97;27.33;;;;;;;26.51;51.51;92838.38;4989878;28;20065;-76
2021/06/17 14:45:56;;;;;;;40.97;26.10;;;;;;;26.56;50.73;92843.38;4974886;28;20051;-76
2021/06/17 14:48:23;;;;;;;41.40;25.88;;;;;;;26.87;49.88;92838.50;4987344;28;20100;-76
2021/06/17 14:50:49;;;;;;;39.30;25.92;;;;;;;26.58;50.99;92838.41;4980894;28;20058;-77
2021/06/17 14:53:15;;;;;;;39.28;25.02;;;;;;;26.44;52.33;92840.25;4979253;28;20103;-76
2021/06/17 14:55:41;;;;;;;40.75;25.48;;;;;;;26.95;50.09;92840.06;4974149;28;20446;-76
2021/06/17 14:58:07;;;;;;;37.88;25.45;;;;;;;27.29;49.20;92837.09;4993861;28;20070;-76
2021/06/17 15:00:33;;;;;;;45.10;27.77;;;;;;;26.74;49.70;92832.72;5055667;28;20051;-76
2021/06/17 15:03:00;;;;;;;36.45;24.15;;;;;;;27.31;49.52;92829.41;5042757;28;20042;-77
2021/06/17 15:05:27;;;;;;;40.58;25.98;;;;;;;27.11;49.78;92825.50;4991061;28;20086;-76
2021/06/17 15:07:53;;;;;;;43.30;26.30;;;;;;;26.84;49.92;92825.06;4986740;28;20049;-76
2021/06/17 15:10:19;;;;;;;37.90;24.77;;;;;;;26.79;50.58;92820.81;4990747;28;20042;-76
2021/06/17 15:12:45;;;;;;;42.67;24.75;;;;;;;26.49;52.66;92829.16;4961486;28;20045;-77
2021/06/17 15:15:11;;;;;;;41.75;26.27;;;;;;;26.95;49.02;92815.91;4989967;28;20347;-77
2021/06/17 15:17:36;;;;;;;51.60;28.08;;;;;;;26.06;51.40;92828.97;4985859;28;20050;-76
2021/06/17 15:20:03;;;;;;;38.08;25.10;;;;;;;26.95;51.13;92813.22;4973402;28;20499;-76
2021/06/17 15:22:29;;;;;;;43.60;27.67;;;;;;;26.74;49.52;92823.91;4952870;28;20096;-76
2021/06/17 15:24:55;;;;;;;39.55;25.17;;;;;;;26.83;49.48;92816.25;5006125;28;20392;-76
2021/06/17 15:27:20;;;;;;;44.20;25.67;;;;;;;27.10;50.11;92811.31;4976711;28;20660;-76
2021/06/17 15:29:46;;;;;;;39.83;25.38;;;;;;;27.14;49.21;92808.63;4990553;28;20069;-76
2021/06/17 15:32:11;;;;;;;49.28;28.20;;;;;;;27.06;48.86;92801.69;4985360;28;20038;-76
2021/06/17 15:34:37;;;;;;;41.60;25.55;;;;;;;26.99;50.11;92805.16;4956707;28;20042;-76
2021/06/17 15:37:03;;;;;;;36.53;24.33;;;;;;;27.44;49.68;92800.22;4984240;28;20500;-76
2021/06/17 15:39:28;;;;;;;40.28;26.17;;;;;;;27.69;48.72;92791.38;4990362;28;20070;-76
2021/06/17 15:41:54;;;;;;;42.47;26.25;;;;;;;27.11;49.59;92791.34;4944668;28;20557;-77
2021/06/17 15:44:21;;;;;;;43.67;26.88;;;;;;;27.25;48.75;92787.19;5040188;28;20069;-77
2021/06/17 15:46:47;;;;;;;38.95;26.17;;;;;;;26.71;51.38;92787.84;4969738;28;20061;-77
2021/06/17 15:49:13;;;;;;;49.55;27.20;;;;;;;27.14;48.97;92787.13;4960254;28;20050;-75
2021/06/17 15:51:39;;;;;;;40.67;26.40;;;;;;;27.18;49.56;92785.97;4968221;28;20055;-76
2021/06/17 15:54:05;;;;;;;39.03;26.30;;;;;;;27.55;48.88;92776.03;4953432;28;20047;-76
2021/06/17 15:56:33;;;;;;;43.72;27.20;;;;;;;27.43;48.90;92777.19;4947689;28;20439;-76
2021/06/17 15:58:59;;;;;;;37.17;25.10;;;;;;;27.55;49.10;92776.78;4955380;28;20538;-75
2021/06/17 16:01:26;;;;;;;38.83;24.38;;;;;;;27.75;48.65;92773.69;4972438;28;20053;-76
2021/06/17 16:03:52;;;;;;;43.58;26.85;;;;;;;27.05;49.97;92776.75;4968268;28;20035;-76
2021/06/17 16:06:18;;;;;;;40.70;25.23;;;;;;;26.94;51.52;92778.66;4955148;28;20053;-76
2021/06/17 16:08:46;;;;;;;42.08;25.05;;;;;;;27.26;50.40;92773.34;4989377;28;20046;-76
2021/06/17 16:11:14;;;;;;;46.10;27.30;;;;;;;27.07;48.92;92771.00;4970777;28;20047;-76
2021/06/17 16:13:39;;;;;;;46.35;27.48;;;;;;;26.48;50.24;92768.56;4939825;28;20136;-76
2021/06/17 16:16:05;;;;;;;42.78;25.77;;;;;;;26.83;50.57;92767.13;4979179;28;20117;-76
2021/06/17 16:18:31;;;;;;;44.97;25.65;;;;;;;26.90;50.75;92772.53;4971784;28;20053;-77
2021/06/17 16:20:58;;;;;;;41.65;26.40;;;;;;;27.08;50.33;92767.16;4986515;28;20572;-78
2021/06/17 16:23:24;;;;;;;45.47;27.35;;;;;;;26.89;50.87;92771.75;4938084;28;20046;-77
2021/06/17 16:25:50;;;;;;;41.92;26.92;;;;;;;26.80;50.84;92768.69;4970900;28;20077;-77
2021/06/17 16:28:15;;;;;;;51.03;27.60;;;;;;;26.73;51.35;92764.06;4976221;28;20056;-77
2021/06/17 16:30:41;;;;;;;44.30;25.38;;;;;;;26.93;51.32;92761.78;5010093;28;20046;-77
2021/06/17 16:33:07;;;;;;;38.58;25.17;;;;;;;27.13;50.48;92767.56;5004595;28;20047;-76
2021/06/17 16:35:33;;;;;;;44.45;25.58;;;;;;;27.23;50.41;92773.34;4984256;28;20055;-76
2021/06/17 16:38:00;;;;;;;42.00;25.02;;;;;;;27.24;49.50;92770.25;4970313;28;20500;-77
2021/06/17 16:40:27;;;;;;;37.47;25.05;;;;;;;27.24;49.75;92772.19;4968371;28;20441;-77
2021/06/17 16:42:52;;;;;;;43.85;26.38;;;;;;;27.24;49.66;92772.94;5005592;28;20040;-77
2021/06/17 16:45:19;;;;;;;43.95;26.02;;;;;;;26.93;50.22;92777.91;5016159;28;20401;-78
2021/06/17 16:47:48;;;;;;;38.20;24.90;;;;;;;27.02;50.90;92782.91;4953584;28;20407;-77
2021/06/17 16:50:15;;;;;;;36.88;25.88;;;;;;;26.99;50.63;92775.59;4973611;28;20136;-76
2021/06/17 16:52:44;;;;;;;36.95;24.40;;;;;;;27.05;50.22;92787.50;4987066;28;20453;-76
2021/06/17 16:55:12;;;;;;;42.45;23.98;;;;;;;26.96;50.51;92784.44;4979396;28;20055;-76
2021/06/17 16:57:38;;;;;;;39.90;25.42;;;;;;;26.96;49.81;92787.13;4985978;28;20520;-76